createdAt,value
2018-07-16T00:01:56.637Z,17.20
2018-07-16T00:11:05.699Z,17.10
2018-07-16T00:15:40.143Z,17.00
2018-07-16T00:20:14.653Z,16.90
2018-07-16T00:24:49.304Z,16.90
2018-07-16T00:29:24.604Z,16.80
2018-07-16T00:33:58.888Z,16.60
2018-07-16T00:38:33.328Z,16.50
2018-07-16T00:43:07.764Z,16.40
2018-07-16T00:47:41.992Z,16.40
2018-07-16T00:52:16.772Z,16.40
2018-07-16T00:56:51.453Z,16.40
2018-07-16T01:01:26.353Z,16.30
2018-07-16T01:06:01.888Z,16.10
2018-07-16T01:10:36.323Z,16.00
2018-07-16T01:15:10.688Z,15.90
2018-07-16T01:19:44.864Z,15.80
2018-07-16T01:24:19.828Z,15.80
2018-07-16T01:28:55.130Z,15.80
2018-07-16T01:33:29.415Z,15.70
2018-07-16T01:38:04.328Z,15.70
2018-07-16T01:42:39.151Z,15.60
2018-07-16T01:47:13.516Z,15.60
2018-07-16T01:51:47.816Z,15.60
2018-07-16T01:56:22.144Z,15.60
2018-07-16T02:00:58.537Z,15.60
2018-07-16T02:05:33.732Z,15.50
2018-07-16T02:10:08.556Z,15.40
2018-07-16T02:14:42.884Z,15.40
2018-07-16T02:19:17.840Z,15.30
2018-07-16T02:23:52.884Z,15.30
2018-07-16T02:28:27.689Z,15.30
2018-07-16T02:33:02.325Z,15.30
2018-07-16T02:42:10.700Z,15.30
2018-07-16T02:46:45.929Z,15.20
2018-07-16T02:55:54.420Z,15.00
2018-07-16T03:00:29.112Z,15.00
2018-07-16T03:05:04.270Z,14.90
2018-07-16T03:09:39.254Z,14.90
2018-07-16T03:14:13.556Z,14.80
2018-07-16T03:18:47.968Z,14.80
2018-07-16T03:23:22.215Z,14.80
2018-07-16T03:27:56.900Z,14.80
2018-07-16T03:32:32.010Z,14.70
2018-07-16T03:37:06.443Z,14.50
2018-07-16T03:41:40.804Z,14.50
2018-07-16T03:46:15.212Z,14.40
2018-07-16T03:50:49.627Z,14.30
2018-07-16T03:55:24.762Z,14.30
2018-07-16T03:59:59.971Z,14.30
2018-07-16T04:04:34.387Z,14.40
2018-07-16T04:09:08.896Z,14.40
2018-07-16T04:13:43.849Z,14.50
2018-07-16T04:18:19.915Z,14.50
2018-07-16T04:22:55.664Z,14.60
2018-07-16T04:27:31.296Z,14.60
2018-07-16T04:36:40.780Z,14.70
2018-07-16T04:41:16.051Z,14.80
2018-07-16T04:45:50.795Z,14.90
2018-07-16T04:50:25.095Z,15.00
2018-07-16T04:59:34.931Z,14.90
2018-07-16T05:04:09.344Z,14.90
2018-07-16T05:08:43.723Z,15.00
2018-07-16T05:13:18.211Z,15.30
2018-07-16T05:17:53.830Z,15.50
2018-07-16T05:22:28.611Z,15.60
2018-07-16T05:27:02.804Z,15.80
2018-07-16T05:31:37.033Z,16.00
2018-07-16T05:36:11.910Z,16.20
2018-07-16T05:40:46.200Z,16.40
2018-07-16T05:45:20.572Z,16.50
2018-07-16T05:49:55.611Z,16.70
2018-07-16T05:54:30.076Z,16.80
2018-07-16T05:59:04.854Z,16.90
2018-07-16T06:03:39.215Z,16.90
2018-07-16T06:08:15.292Z,17.00
2018-07-16T06:12:51.011Z,17.10
2018-07-16T06:17:25.990Z,17.40
2018-07-16T06:22:00.224Z,17.60
2018-07-16T06:26:34.646Z,17.90
2018-07-16T06:31:09.404Z,18.40
2018-07-16T06:35:44.239Z,18.80
2018-07-16T06:40:18.653Z,19.20
2018-07-16T06:44:53.381Z,19.80
2018-07-16T06:49:28.024Z,20.30
2018-07-16T06:54:03.096Z,20.50
2018-07-16T06:58:37.814Z,20.60
2018-07-16T07:03:13.895Z,20.70
2018-07-16T07:07:49.279Z,21.00
2018-07-16T07:12:24.389Z,21.00
2018-07-16T07:16:58.752Z,21.30
2018-07-16T07:21:33.739Z,21.80
2018-07-16T07:26:08.245Z,22.20
2018-07-16T07:30:42.485Z,22.40
2018-07-16T07:35:18.346Z,22.60
2018-07-16T07:39:52.611Z,22.90
2018-07-16T07:44:26.771Z,23.20
2018-07-16T07:49:01.635Z,23.50
2018-07-16T07:53:35.908Z,23.90
2018-07-16T07:58:10.419Z,24.30
2018-07-16T08:02:46.028Z,24.70
2018-07-16T08:07:20.209Z,25.30
2018-07-16T08:11:55.075Z,25.60
2018-07-16T08:16:29.437Z,25.70
2018-07-16T08:21:04.879Z,25.90
2018-07-16T08:25:39.188Z,26.40
2018-07-16T08:30:14.104Z,26.90
2018-07-16T08:34:49.128Z,27.30
2018-07-16T08:39:23.464Z,28.10
2018-07-16T08:43:58.168Z,29.40
2018-07-16T08:48:32.934Z,30.80
2018-07-16T08:53:07.332Z,31.90
2018-07-16T08:57:42.863Z,32.00
2018-07-16T09:02:17.251Z,32.20
2018-07-16T09:06:51.807Z,33.10
2018-07-16T09:11:26.169Z,33.40
2018-07-16T09:16:00.589Z,33.30
2018-07-16T09:20:34.832Z,33.80
2018-07-16T09:25:09.343Z,35.00
2018-07-16T09:29:43.920Z,35.60
2018-07-16T09:34:18.799Z,35.30
2018-07-16T09:38:53.159Z,35.70
2018-07-16T09:43:27.599Z,35.70
2018-07-16T09:48:02.585Z,35.60
2018-07-16T09:52:37.031Z,35.80
2018-07-16T09:57:11.299Z,36.10
2018-07-16T10:01:50.657Z,36.30
2018-07-16T10:06:24.982Z,36.60
2018-07-16T10:10:59.447Z,37.20
2018-07-16T10:15:34.708Z,37.80
2018-07-16T10:20:09.096Z,37.80
2018-07-16T10:24:43.952Z,38.00
2018-07-16T10:29:19.060Z,37.70
2018-07-16T10:33:53.600Z,37.70
2018-07-16T10:38:27.796Z,37.50
2018-07-16T10:47:36.839Z,37.20
2018-07-16T10:52:12.269Z,37.20
2018-07-16T10:56:46.476Z,37.40
2018-07-16T11:01:20.796Z,38.00
2018-07-16T11:05:57.997Z,38.70
2018-07-16T11:10:33.100Z,38.60
2018-07-16T11:15:07.656Z,38.90
2018-07-16T11:19:41.924Z,38.70
2018-07-16T11:24:16.129Z,38.40
2018-07-16T11:28:50.577Z,38.30
2018-07-16T11:33:25.204Z,38.60
2018-07-16T11:37:59.336Z,38.90
2018-07-16T11:42:34.696Z,38.80
2018-07-16T11:47:09.391Z,38.80
2018-07-16T11:51:43.619Z,38.60
2018-07-16T11:56:17.940Z,38.50
2018-07-16T12:00:53.277Z,38.50
2018-07-16T12:10:02.352Z,38.80
2018-07-16T12:14:38.289Z,39.00
2018-07-16T12:19:12.636Z,38.50
2018-07-16T12:23:47.050Z,38.30
2018-07-16T12:28:21.320Z,38.00
2018-07-16T12:32:55.591Z,38.00
2018-07-16T12:37:30.016Z,37.50
2018-07-16T12:42:04.836Z,37.80
2018-07-16T12:46:41.940Z,38.30
2018-07-16T12:51:16.253Z,38.60
2018-07-16T12:55:50.371Z,38.10
2018-07-16T13:00:25.232Z,38.10
2018-07-16T13:04:59.423Z,38.40
2018-07-16T13:09:33.773Z,38.10
2018-07-16T13:14:08.132Z,38.30
2018-07-16T13:18:43.291Z,38.60
2018-07-16T13:23:17.697Z,38.70
2018-07-16T13:27:52.057Z,39.30
2018-07-16T13:32:27.560Z,38.90
2018-07-16T13:37:01.789Z,38.00
2018-07-16T13:41:36.787Z,36.80
2018-07-16T13:46:10.999Z,35.30
2018-07-16T13:50:45.291Z,34.50
2018-07-16T13:55:19.544Z,33.70
2018-07-16T13:59:54.832Z,33.20
2018-07-16T14:04:29.661Z,32.60
2018-07-16T14:09:04.732Z,32.20
2018-07-16T14:13:39.537Z,32.20
2018-07-16T14:18:13.856Z,32.70
2018-07-16T14:22:48.716Z,33.10
2018-07-16T14:27:23.560Z,33.30
2018-07-16T14:31:58.884Z,33.40
2018-07-16T14:36:33.628Z,33.50
2018-07-16T14:41:09.021Z,32.80
2018-07-16T14:45:43.560Z,32.20
2018-07-16T14:50:18.930Z,31.90
2018-07-16T14:54:53.449Z,31.80
2018-07-16T14:59:28.316Z,31.80
2018-07-16T15:04:02.688Z,31.60
2018-07-16T15:08:38.254Z,31.40
2018-07-16T15:13:12.876Z,31.00
2018-07-16T15:17:48.523Z,31.00
2018-07-16T15:22:23.166Z,31.00
2018-07-16T15:26:58.977Z,31.00
2018-07-16T15:31:33.148Z,31.10
2018-07-16T15:36:07.332Z,31.10
2018-07-16T15:40:42.422Z,30.90
2018-07-16T15:45:16.619Z,30.60
2018-07-16T15:49:51.513Z,30.30
2018-07-16T15:54:26.118Z,30.00
2018-07-16T15:59:00.416Z,29.80
2018-07-16T16:03:34.647Z,29.70
2018-07-16T16:08:09.545Z,29.40
2018-07-16T16:12:45.152Z,29.10
2018-07-16T16:17:19.515Z,28.90
2018-07-16T16:21:56.007Z,29.00
2018-07-16T16:26:30.727Z,29.00
2018-07-16T16:31:05.648Z,28.90
2018-07-16T16:35:40.135Z,28.70
2018-07-16T16:40:15.504Z,28.40
2018-07-16T16:44:51.456Z,28.20
2018-07-16T16:49:25.785Z,27.90
2018-07-16T16:54:00.267Z,27.70
2018-07-16T16:58:35.306Z,27.80
2018-07-16T17:03:09.572Z,27.80
2018-07-16T17:07:44.609Z,28.00
2018-07-16T17:12:18.912Z,28.00
2018-07-16T17:16:53.180Z,28.10
2018-07-16T17:21:28.759Z,28.10
2018-07-16T17:26:03.144Z,28.00
2018-07-16T17:30:37.488Z,27.90
2018-07-16T17:35:12.429Z,27.90
2018-07-16T17:39:46.648Z,27.90
2018-07-16T17:44:21.215Z,27.90
2018-07-16T17:48:56.064Z,27.80
2018-07-16T17:53:31.168Z,27.60
2018-07-16T17:58:05.612Z,27.40
2018-07-16T18:02:39.876Z,27.10
2018-07-16T18:07:18.528Z,26.90
2018-07-16T18:11:54.371Z,26.80
2018-07-16T18:16:28.537Z,26.60
2018-07-16T18:21:02.959Z,26.40
2018-07-16T18:25:37.288Z,26.30
2018-07-16T18:30:12.084Z,26.30
2018-07-16T18:34:46.355Z,26.20
2018-07-16T18:39:20.966Z,26.00
2018-07-16T18:43:55.568Z,25.80
2018-07-16T18:48:30.061Z,25.70
2018-07-16T18:53:04.317Z,25.50
2018-07-16T18:57:39.311Z,25.40
2018-07-16T19:02:13.604Z,25.40
2018-07-16T19:06:47.773Z,25.40
2018-07-16T19:11:22.068Z,25.30
2018-07-16T19:15:57.485Z,25.10
2018-07-16T19:20:31.832Z,24.90
2018-07-16T19:25:06.296Z,24.70
2018-07-16T19:29:40.581Z,24.40
2018-07-16T19:34:14.864Z,24.20
2018-07-16T19:38:49.154Z,24.00
2018-07-16T19:43:23.456Z,23.80
2018-07-16T19:47:57.596Z,23.50
2018-07-16T19:52:31.786Z,23.40
2018-07-16T19:57:06.157Z,23.30
2018-07-16T20:01:40.617Z,23.10
2018-07-16T20:06:16.039Z,22.90
2018-07-16T20:10:50.271Z,22.70
2018-07-16T20:15:24.928Z,22.60
2018-07-16T20:19:59.534Z,22.40
2018-07-16T20:24:33.963Z,22.30
2018-07-16T20:29:09.462Z,22.20
2018-07-16T20:33:44.347Z,22.10
2018-07-16T20:38:18.612Z,21.90
2018-07-16T20:42:53.513Z,21.70
2018-07-16T20:47:27.808Z,21.60
2018-07-16T20:52:03.457Z,21.50
2018-07-16T20:56:38.217Z,21.40
2018-07-16T21:01:13.424Z,21.30
2018-07-16T21:05:47.744Z,21.00
2018-07-16T21:10:22.335Z,20.80
2018-07-16T21:14:56.684Z,20.60
2018-07-16T21:19:30.900Z,20.40
2018-07-16T21:24:05.188Z,20.40
2018-07-16T21:28:39.578Z,20.30
2018-07-16T21:33:14.541Z,20.30
2018-07-16T21:37:49.839Z,20.20
2018-07-16T21:42:25.025Z,20.00
2018-07-16T21:47:01.305Z,19.90
2018-07-16T21:51:35.731Z,19.80
2018-07-16T21:56:12.013Z,19.80
2018-07-16T22:00:48.682Z,19.70
2018-07-16T22:05:24.578Z,19.60
2018-07-16T22:09:59.327Z,19.50
2018-07-16T22:14:34.363Z,19.30
2018-07-16T22:19:10.231Z,19.10
2018-07-16T22:23:44.595Z,18.90
2018-07-16T22:28:20.652Z,18.70
2018-07-16T22:42:02.816Z,18.50
2018-07-16T22:46:36.964Z,18.50
2018-07-16T22:51:11.395Z,18.40
2018-07-16T22:55:46.245Z,18.50
2018-07-16T23:00:20.448Z,18.40
2018-07-16T23:04:55.464Z,18.30
2018-07-16T23:09:29.762Z,18.20
2018-07-16T23:14:04.423Z,18.20
2018-07-16T23:18:39.688Z,18.20
2018-07-16T23:23:14.532Z,18.20
2018-07-16T23:27:49.251Z,18.10
2018-07-16T23:32:24.184Z,18.10
2018-07-16T23:36:59.139Z,18.00
2018-07-16T23:41:34.535Z,17.90
2018-07-16T23:46:09.704Z,17.60
2018-07-16T23:50:44.079Z,17.60
2018-07-16T23:55:19.221Z,17.60
